createdAt,value
2023-01-26T00:01:57.269Z,43.85
2023-01-26T00:16:57.811Z,43.02
2023-01-26T00:31:58.406Z,43.33
2023-01-26T00:46:59.063Z,43.04
2023-01-26T01:01:59.717Z,42.93
2023-01-26T01:17:00.654Z,42.70
2023-01-26T01:32:00.913Z,43.64
2023-01-26T01:47:00.943Z,43.66
2023-01-26T02:02:03.336Z,43.96
2023-01-26T02:17:04.419Z,45.97
2023-01-26T02:32:05.027Z,48.79
2023-01-26T02:47:17.752Z,50.13
2023-01-26T03:02:18.362Z,49.63
2023-01-26T03:17:18.959Z,46.39
2023-01-26T03:32:19.945Z,46.07
2023-01-26T03:47:20.162Z,46.80
2023-01-26T04:02:21.199Z,46.59
2023-01-26T04:17:23.409Z,46.41
2023-01-26T04:32:24.001Z,46.41
2023-01-26T04:47:24.645Z,46.72
2023-01-26T05:02:25.626Z,46.93
2023-01-26T05:17:25.837Z,47.24
2023-01-26T05:32:27.704Z,49.97
2023-01-26T05:47:28.719Z,53.64
2023-01-26T06:02:29.395Z,53.32
2023-01-26T06:17:29.523Z,55.02
2023-01-26T06:32:30.114Z,61.94
2023-01-26T06:47:31.542Z,58.48
2023-01-26T07:02:43.670Z,55.02
2023-01-26T07:17:44.228Z,55.13
2023-01-26T07:32:44.847Z,54.08
2023-01-26T07:47:45.452Z,54.71
2023-01-26T08:02:46.169Z,55.05
2023-01-26T08:17:46.784Z,60.50
2023-01-26T08:32:47.262Z,57.33
2023-01-26T08:47:47.844Z,56.91
2023-01-26T09:03:02.627Z,59.53
2023-01-26T09:18:02.929Z,69.17
2023-01-26T09:33:03.589Z,73.26
2023-01-26T09:48:03.707Z,76.68
2023-01-26T10:03:04.756Z,78.05
2023-01-26T10:18:04.886Z,88.52
2023-01-26T10:33:05.005Z,92.04
2023-01-26T10:48:06.029Z,92.77
2023-01-26T11:03:06.450Z,91.52
2023-01-26T11:18:07.275Z,92.77
2023-01-26T11:33:07.494Z,92.83
2023-01-26T11:48:08.054Z,92.63
2023-01-26T12:03:08.776Z,88.86
2023-01-26T12:18:09.669Z,84.99
2023-01-26T12:33:10.287Z,83.56
2023-01-26T12:48:10.888Z,79.27
2023-01-26T13:03:11.526Z,76.86
2023-01-26T13:18:12.112Z,77.80
2023-01-26T13:33:12.737Z,77.20
2023-01-26T13:48:13.309Z,77.62
2023-01-26T14:03:13.503Z,77.62
2023-01-26T14:18:14.010Z,80.87
2023-01-26T14:33:14.632Z,84.01
2023-01-26T14:48:14.817Z,85.59
2023-01-26T15:03:15.417Z,85.31
2023-01-26T15:18:16.056Z,82.48
2023-01-26T15:33:17.105Z,81.29
2023-01-26T15:48:17.293Z,78.29
2023-01-26T16:03:18.327Z,76.51
2023-01-26T16:18:18.500Z,73.26
2023-01-26T16:33:19.108Z,71.58
2023-01-26T16:48:19.700Z,70.75
2023-01-26T17:03:20.714Z,67.81
2023-01-26T17:18:20.933Z,63.93
2023-01-26T17:33:22.872Z,60.89
2023-01-26T17:48:23.475Z,57.12
2023-01-26T18:03:24.105Z,55.13
2023-01-26T18:18:24.672Z,53.01
2023-01-26T18:33:25.302Z,49.26
2023-01-26T18:48:25.397Z,48.71
2023-01-26T19:03:26.055Z,47.45
2023-01-26T19:18:26.533Z,46.41
2023-01-26T19:33:26.759Z,45.65
2023-01-26T19:48:27.233Z,45.57
2023-01-26T20:03:28.064Z,44.60
2023-01-26T20:18:28.634Z,42.93
2023-01-26T20:33:28.973Z,42.72
2023-01-26T20:48:29.396Z,42.19
2023-01-26T21:03:31.447Z,41.76
2023-01-26T21:18:31.901Z,41.76
2023-01-26T21:33:32.738Z,41.76
2023-01-26T21:48:34.259Z,40.92
2023-01-26T22:03:34.858Z,40.30
2023-01-26T22:18:35.061Z,40.59
2023-01-26T22:33:35.844Z,40.28
2023-01-26T22:48:37.680Z,40.17
2023-01-26T23:03:37.887Z,40.06
2023-01-26T23:18:38.627Z,40.48
2023-01-26T23:33:40.127Z,39.23
2023-01-26T23:48:40.686Z,39.65
